Het weer levert geen direct gevaar op.    Er zijn geen waarschuwingen afgegeven.

Notice: Undefined offset: 5 in /home/meteosle/domains/meteo-sleen.nl/public_html/weather2/metar/metarDisplay.php on line 75

Notice: Undefined offset: 6 in /home/meteosle/domains/meteo-sleen.nl/public_html/weather2/metar/metarDisplay.php on line 75

METAR rapporten vliegvelden

   
EBAW - Antwerp
Gewijzigd: 20-06-2018 18:20
Licht bewolkt  
Licht bewolkt  
   Wind: WZW 18.5 km/h
Wind: WZW 18.5 km/h
Temperatuur: 27°C
Gevoelstemperatuur: 27°C
Dauwpunt: 15°C
Vochtigheid: 48%
Barometer: 1019 hPa
Bewolking: Licht bewolkt
Zicht: meer dan 10 km
Bewolking: Licht bewolkt 4500 ft
EBAW 201620Z 25010KT 9999 FEW045 27/15 Q1019 NOSIG
EBLG - Liège
Gewijzigd: 20-06-2018 18:20
Licht bewolkt  
Licht bewolkt  
   Wind: Westen 13 km/h
Wind: Westen 13 km/h
Temperatuur: 26°C
Dauwpunt: 14°C
Vochtigheid: 48%
Barometer: 1019 hPa
Bewolking: Licht bewolkt
Zicht: meer dan 10 km
Bewolking: Licht bewolkt 4800 ft
EBLG 201620Z 28007KT 240V320 9999 FEW048 26/14 Q1019 NOSIG
EBCV - Mons/Bergen
Gewijzigd: 20-06-2018 18:25
Helder  
Helder  
   Wind: Westen 13 km/h
Wind: Westen 13 km/h
Temperatuur: 25°C
Dauwpunt: 15°C
Vochtigheid: 54%
Barometer: 1020 hPa
Bewolking: Helder
Zicht: meer dan 10 km
Bewolking: Helder
EBCV 201625Z AUTO 27007KT 9999 NCD 25/15 Q1020 BLU
EHBK - Maastricht
Gewijzigd: 20-06-2018 18:25
Helder  
Helder  
   Wind: WZW 14.8 km/h
Wind: WZW 14.8 km/h
Temperatuur: 27°C
Gevoelstemperatuur: 27°C
Dauwpunt: 14°C
Vochtigheid: 45%
Barometer: 1019 hPa
Bewolking: Helder
Zicht: meer dan 10 km
Bewolking: Helder
EHBK 201625Z AUTO 24008KT 200V280 9999 NCD 27/14 Q1019 NOSIG
EHAM - Schiphol
Gewijzigd: 20-06-2018 18:25
Licht bewolkt  
Licht bewolkt  
   Wind: ZW 31.5 km/h
Wind: ZW 31.5 km/h
Temperatuur: 22°C
Dauwpunt: 15°C
Vochtigheid: 65%
Barometer: 1018 hPa
Bewolking: Licht bewolkt
Zicht: meer dan 10 km
Bewolking: Licht bewolkt 2500 ft
EHAM 201625Z 23017KT 210V270 9999 FEW025 22/15 Q1018 NOSIG
EHGG - Eelde
Gewijzigd: 20-06-2018 18:25
Gedeeltelijk bewolkt  
Gedeeltelijk bewolkt  
   Wind: WZW 25.9 km/h
Wind: WZW 25.9 km/h
Temperatuur: 22°C
Dauwpunt: 16°C
Vochtigheid: 69%
Barometer: 1017 hPa
Bewolking: Gedeeltelijk bewolkt
Zicht: meer dan 10 km
Bewolking: Gedeeltelijk bewolkt 2500 ft
EHGG 201625Z AUTO 24014KT 210V280 9999 SCT025 22/16 Q1017 NOSIG

Script ontwikkeld door  Saratoga-weather.org Aangepast voor de template door  Weerstation Leuven

U vindt ons ook hier:

Het Weer Aktueel

UK Metoffice

European Weather Network

Weather Underground

Benelux Weer Netwerk

AWEKAS

Citizen Weather Observer Program (CWOP)

Apparatuur in gebruik:

Weerstation
Davis VP2

Weerprogramma
consoleWD

Weercomputer
RaspberryPI

Webleverancier
Deziweb

Davis VP2

consoleWD

RaspberryPI

Deziweb